createdAt,value
2018-05-27T00:00:20.315Z,64.34
2018-05-27T00:01:20.304Z,64.34
2018-05-27T00:02:20.292Z,64.53
2018-05-27T00:03:20.296Z,64.34
2018-05-27T00:04:20.272Z,64.63
2018-05-27T00:05:20.408Z,64.63
2018-05-27T00:06:20.245Z,64.92
2018-05-27T00:07:20.246Z,64.34
2018-05-27T00:08:20.222Z,65.01
2018-05-27T00:09:20.210Z,65.17
2018-05-27T00:10:20.205Z,65.20
2018-05-27T00:11:20.185Z,64.69
2018-05-27T00:12:20.172Z,65.27
2018-05-27T00:13:20.161Z,64.98
2018-05-27T00:14:20.148Z,65.27
2018-05-27T00:15:20.137Z,65.17
2018-05-27T00:16:20.122Z,66.04
2018-05-27T00:17:20.113Z,65.66
2018-05-27T00:18:20.100Z,66.04
2018-05-27T00:19:20.092Z,65.94
2018-05-27T00:20:20.078Z,65.94
2018-05-27T00:21:20.062Z,66.24
2018-05-27T00:22:20.058Z,66.42
2018-05-27T00:23:20.046Z,66.14
2018-05-27T00:24:20.027Z,66.14
2018-05-27T00:25:20.017Z,66.42
2018-05-27T00:26:20.021Z,66.33
2018-05-27T00:27:19.988Z,66.33
2018-05-27T00:28:19.983Z,66.24
2018-05-27T00:29:19.980Z,65.56
2018-05-27T00:30:19.957Z,66.04
2018-05-27T00:31:19.941Z,66.14
2018-05-27T00:32:19.930Z,66.42
2018-05-27T00:33:19.917Z,66.33
2018-05-27T00:34:19.908Z,66.33
2018-05-27T00:35:19.893Z,66.33
2018-05-27T00:36:19.880Z,66.71
2018-05-27T00:37:19.869Z,66.91
2018-05-27T00:38:19.857Z,67.00
2018-05-27T00:39:19.844Z,66.71
2018-05-27T00:40:19.841Z,67.19
2018-05-27T00:41:19.819Z,67.10
2018-05-27T00:42:19.807Z,67.29
2018-05-27T00:43:19.799Z,67.00
2018-05-27T00:44:19.780Z,67.35
2018-05-27T00:45:19.768Z,67.65
2018-05-27T00:46:19.760Z,67.55
2018-05-27T00:47:19.746Z,67.83
2018-05-27T00:48:19.734Z,67.45
2018-05-27T00:49:19.727Z,67.10
2018-05-27T00:50:19.708Z,67.07
2018-05-27T00:51:19.798Z,67.26
2018-05-27T00:52:19.692Z,67.55
2018-05-27T00:53:19.673Z,68.03
2018-05-27T00:54:19.663Z,68.13
2018-05-27T00:55:19.647Z,68.13
2018-05-27T00:56:19.640Z,68.03
2018-05-27T00:57:19.624Z,67.74
2018-05-27T00:58:19.611Z,68.03
2018-05-27T00:59:19.599Z,67.83
2018-05-27T01:00:19.590Z,67.93
2018-05-27T01:01:19.576Z,67.74
2018-05-27T01:02:19.570Z,68.03
2018-05-27T01:03:19.548Z,67.93
2018-05-27T01:04:19.579Z,68.03
2018-05-27T01:05:19.531Z,67.93
2018-05-27T01:06:19.513Z,68.03
2018-05-27T01:07:19.550Z,68.41
2018-05-27T01:08:19.493Z,68.60
2018-05-27T01:09:19.474Z,68.60
2018-05-27T01:10:19.463Z,68.41
2018-05-27T01:11:19.447Z,68.99
2018-05-27T01:12:19.436Z,68.90
2018-05-27T01:13:19.432Z,68.41
2018-05-27T01:14:19.413Z,68.70
2018-05-27T01:15:19.402Z,68.90
2018-05-27T01:16:19.387Z,68.60
2018-05-27T01:17:19.387Z,68.80
2018-05-27T01:18:19.362Z,68.70
2018-05-27T01:19:19.354Z,68.70
2018-05-27T01:20:19.338Z,68.70
2018-05-27T01:21:19.325Z,69.09
2018-05-27T01:22:19.313Z,68.60
2018-05-27T01:23:19.301Z,68.99
2018-05-27T01:24:19.288Z,68.80
2018-05-27T01:25:19.275Z,68.80
2018-05-27T01:26:19.263Z,69.15
2018-05-27T01:27:19.253Z,69.73
2018-05-27T01:28:19.237Z,69.63
2018-05-27T01:29:19.224Z,69.67
2018-05-27T01:30:19.214Z,69.24
2018-05-27T01:31:19.208Z,69.15
2018-05-27T01:32:19.187Z,69.34
2018-05-27T01:33:19.174Z,69.63
2018-05-27T01:34:19.167Z,69.82
2018-05-27T01:35:19.151Z,69.38
2018-05-27T01:36:19.136Z,69.47
2018-05-27T01:37:19.125Z,69.44
2018-05-27T01:38:19.120Z,70.01
2018-05-27T01:39:19.101Z,69.73
2018-05-27T01:40:19.096Z,69.73
2018-05-27T01:41:19.075Z,69.47
2018-05-27T01:42:19.062Z,69.53
2018-05-27T01:43:19.052Z,69.82
2018-05-27T01:44:19.037Z,69.44
2018-05-27T01:45:19.026Z,69.24
2018-05-27T01:46:19.013Z,69.63
2018-05-27T01:47:19.010Z,69.63
2018-05-27T01:48:18.989Z,70.40
2018-05-27T01:49:18.977Z,70.30
2018-05-27T01:50:18.974Z,70.30
2018-05-27T01:51:18.951Z,70.78
2018-05-27T01:52:18.938Z,70.88
2018-05-27T01:53:18.935Z,70.59
2018-05-27T01:54:18.913Z,70.65
2018-05-27T01:55:18.902Z,70.88
2018-05-27T01:56:18.889Z,71.26
2018-05-27T01:57:18.880Z,71.36
2018-05-27T01:58:18.876Z,71.52
2018-05-27T01:59:18.851Z,71.36
2018-05-27T02:00:18.842Z,71.36
2018-05-27T02:01:18.825Z,71.14
2018-05-27T02:02:18.812Z,71.33
2018-05-27T02:03:18.801Z,71.55
2018-05-27T02:04:18.787Z,71.04
2018-05-27T02:05:18.779Z,72.00
2018-05-27T02:06:18.762Z,72.09
2018-05-27T02:07:18.751Z,72.19
2018-05-27T02:08:18.749Z,71.91
2018-05-27T02:09:18.721Z,71.71
2018-05-27T02:10:18.712Z,72.09
2018-05-27T02:11:18.698Z,72.67
2018-05-27T02:12:18.684Z,72.67
2018-05-27T02:13:18.673Z,72.96
2018-05-27T02:14:18.659Z,72.38
2018-05-27T02:15:18.647Z,72.48
2018-05-27T02:16:18.632Z,72.38
2018-05-27T02:17:18.620Z,72.58
2018-05-27T02:18:18.618Z,72.58
2018-05-27T02:19:18.596Z,72.29
2018-05-27T02:20:18.582Z,72.09
2018-05-27T02:21:18.568Z,71.91
2018-05-27T02:22:18.556Z,72.29
2018-05-27T02:23:18.544Z,72.29
2018-05-27T02:24:18.540Z,72.19
2018-05-27T02:25:18.525Z,72.58
2018-05-27T02:26:18.505Z,72.38
2018-05-27T02:27:18.491Z,72.96
2018-05-27T02:28:18.480Z,73.21
2018-05-27T02:29:18.465Z,73.35
2018-05-27T02:30:18.453Z,73.88
2018-05-27T02:31:18.449Z,73.50
2018-05-27T02:32:18.426Z,73.31
2018-05-27T02:33:18.414Z,73.79
2018-05-27T02:34:18.403Z,73.69
2018-05-27T02:35:18.390Z,73.21
2018-05-27T02:36:18.394Z,73.21
2018-05-27T02:37:18.365Z,73.69
2018-05-27T02:38:18.350Z,73.31
2018-05-27T02:39:18.348Z,73.35
2018-05-27T02:40:18.390Z,72.92
2018-05-27T02:41:18.330Z,72.86
2018-05-27T02:42:18.299Z,73.21
2018-05-27T02:43:18.286Z,73.41
2018-05-27T02:44:18.274Z,74.27
2018-05-27T02:45:18.260Z,74.65
2018-05-27T02:46:18.256Z,74.17
2018-05-27T02:47:18.243Z,74.75
2018-05-27T02:48:18.222Z,74.60
2018-05-27T02:49:18.207Z,74.79
2018-05-27T02:50:18.198Z,74.75
2018-05-27T02:51:18.181Z,74.37
2018-05-27T02:52:18.171Z,74.65
2018-05-27T02:53:18.157Z,74.65
2018-05-27T02:54:18.145Z,75.32
2018-05-27T02:55:18.132Z,74.94
2018-05-27T02:56:18.171Z,75.32
2018-05-27T02:57:18.112Z,75.04
2018-05-27T02:58:18.097Z,75.23
2018-05-27T02:59:18.081Z,75.52
2018-05-27T03:00:18.068Z,75.52
2018-05-27T03:01:18.055Z,74.94
2018-05-27T03:02:18.041Z,74.85
2018-05-27T03:03:18.028Z,75.04
2018-05-27T03:04:18.014Z,74.85
2018-05-27T03:05:18.003Z,75.23
2018-05-27T03:06:17.990Z,75.52
2018-05-27T03:07:17.991Z,75.81
2018-05-27T03:08:17.961Z,75.71
2018-05-27T03:09:21.451Z,75.62
2018-05-27T03:11:12.230Z,75.42
2018-05-27T03:12:12.214Z,76.09
2018-05-27T03:13:12.210Z,75.62
2018-05-27T03:14:14.810Z,75.62
2018-05-27T03:15:12.184Z,75.81
2018-05-27T03:16:12.162Z,75.90
2018-05-27T03:17:12.158Z,75.23
2018-05-27T03:18:12.135Z,75.90
2018-05-27T03:19:12.126Z,76.00
2018-05-27T03:20:12.109Z,75.90
2018-05-27T03:22:12.082Z,76.09
2018-05-27T03:23:12.072Z,75.71
2018-05-27T03:24:12.056Z,75.81
2018-05-27T03:25:12.043Z,75.90
2018-05-27T03:26:12.080Z,76.29
2018-05-27T03:27:12.017Z,76.00
2018-05-27T03:28:12.003Z,76.00
2018-05-27T03:29:55.715Z,76.39
2018-05-27T03:30:55.702Z,76.19
2018-05-27T03:31:55.687Z,75.81
2018-05-27T03:32:55.690Z,75.62
2018-05-27T03:33:55.661Z,75.90
2018-05-27T03:34:55.648Z,76.86
2018-05-27T03:35:55.636Z,76.86
2018-05-27T03:36:55.639Z,76.77
2018-05-27T03:37:55.607Z,77.06
2018-05-27T03:38:55.602Z,76.57
2018-05-27T03:39:55.581Z,76.00
2018-05-27T03:40:55.569Z,76.00
2018-05-27T03:41:55.558Z,76.19
2018-05-27T03:42:55.545Z,76.19
2018-05-27T03:43:55.531Z,75.71
2018-05-27T03:44:55.520Z,76.19
2018-05-27T03:45:55.504Z,75.71
2018-05-27T03:46:55.499Z,75.90
2018-05-27T03:47:55.477Z,76.09
2018-05-27T03:48:55.464Z,75.71
2018-05-27T03:49:58.134Z,75.90
2018-05-27T03:50:55.445Z,76.39
2018-05-27T03:51:56.436Z,76.00
2018-05-27T03:52:55.412Z,75.90
2018-05-27T03:53:55.406Z,77.06
2018-05-27T03:54:55.386Z,76.96
2018-05-27T03:55:55.375Z,76.86
2018-05-27T03:56:55.359Z,77.31
2018-05-27T03:57:55.346Z,77.31
2018-05-27T03:58:55.333Z,77.50
2018-05-27T03:59:55.321Z,77.11
2018-05-27T04:00:55.305Z,77.50
2018-05-27T04:01:55.298Z,77.78
2018-05-27T04:02:56.088Z,77.59
2018-05-27T04:03:55.270Z,77.50
2018-05-27T04:04:55.253Z,77.69
2018-05-27T04:05:55.255Z,77.59
2018-05-27T04:06:55.228Z,77.40
2018-05-27T04:07:55.213Z,77.69
2018-05-27T04:08:55.199Z,77.98
2018-05-27T04:09:55.795Z,77.50
2018-05-27T04:10:55.173Z,77.40
2018-05-27T04:11:55.165Z,77.63
2018-05-27T04:12:55.153Z,77.50
2018-05-27T04:13:55.135Z,77.25
2018-05-27T04:14:55.124Z,77.25
2018-05-27T04:15:55.107Z,77.73
2018-05-27T04:16:55.093Z,77.25
2018-05-27T04:17:55.081Z,77.15
2018-05-27T04:18:55.120Z,77.40
2018-05-27T04:19:55.053Z,77.69
2018-05-27T04:20:55.041Z,77.44
2018-05-27T04:21:55.028Z,77.53
2018-05-27T04:22:55.015Z,77.59
2018-05-27T04:23:55.001Z,77.44
2018-05-27T04:24:54.991Z,77.15
2018-05-27T04:25:54.973Z,77.63
2018-05-27T04:26:54.984Z,77.53
2018-05-27T04:27:54.949Z,77.15
2018-05-27T04:28:54.935Z,77.44
2018-05-27T04:29:54.922Z,76.86
2018-05-27T04:30:54.909Z,77.34
2018-05-27T04:31:54.896Z,77.50
2018-05-27T04:32:54.880Z,77.63
2018-05-27T04:33:54.871Z,77.63
2018-05-27T04:34:54.854Z,77.34
2018-05-27T04:35:54.847Z,77.06
2018-05-27T04:36:54.829Z,77.63
2018-05-27T04:37:54.817Z,77.34
2018-05-27T04:38:54.803Z,77.34
2018-05-27T04:39:54.799Z,77.44
2018-05-27T04:40:54.776Z,76.67
2018-05-27T04:41:54.772Z,77.06
2018-05-27T04:42:54.849Z,77.15
2018-05-27T04:43:54.737Z,77.06
2018-05-27T04:44:54.771Z,77.25
2018-05-27T04:45:54.711Z,77.44
2018-05-27T04:46:54.698Z,77.25
2018-05-27T04:47:54.684Z,76.86
2018-05-27T04:48:54.669Z,76.96
2018-05-27T04:49:54.657Z,76.71
2018-05-27T04:50:54.644Z,76.32
2018-05-27T04:51:54.631Z,76.71
2018-05-27T04:52:54.626Z,76.81
2018-05-27T04:53:54.604Z,76.81
2018-05-27T04:54:54.598Z,77.00
2018-05-27T04:55:54.579Z,76.71
2018-05-27T04:56:54.567Z,77.19
2018-05-27T04:57:54.554Z,76.81
2018-05-27T04:58:54.541Z,76.71
2018-05-27T04:59:54.526Z,77.00
2018-05-27T05:00:54.514Z,76.04
2018-05-27T05:01:54.503Z,76.23
2018-05-27T05:02:54.487Z,75.75
2018-05-27T05:03:54.483Z,75.75
2018-05-27T05:04:54.460Z,75.75
2018-05-27T05:05:54.448Z,75.56
2018-05-27T05:06:54.434Z,75.02
2018-05-27T05:07:54.422Z,74.92
2018-05-27T05:08:54.408Z,75.37
2018-05-27T05:09:54.396Z,75.27
2018-05-27T05:10:54.383Z,75.17
2018-05-27T05:11:54.371Z,75.88
2018-05-27T05:12:54.356Z,75.02
2018-05-27T05:13:54.345Z,74.82
2018-05-27T05:14:54.349Z,74.82
2018-05-27T05:15:54.320Z,74.82
2018-05-27T05:16:54.311Z,74.73
2018-05-27T05:17:54.295Z,74.73
2018-05-27T05:18:54.286Z,74.82
2018-05-27T05:19:54.278Z,74.73
2018-05-27T05:20:54.256Z,74.82
2018-05-27T05:21:54.245Z,74.92
2018-05-27T05:22:54.232Z,74.57
2018-05-27T05:23:54.219Z,74.76
2018-05-27T05:24:54.214Z,74.76
2018-05-27T05:25:54.194Z,74.57
2018-05-27T05:26:54.188Z,74.76
2018-05-27T05:27:54.171Z,74.76
2018-05-27T05:28:54.156Z,74.67
2018-05-27T05:29:54.144Z,74.86
2018-05-27T05:30:54.141Z,74.76
2018-05-27T05:31:54.122Z,73.90
2018-05-27T05:32:54.105Z,71.76
2018-05-27T05:33:54.092Z,69.13
2018-05-27T05:34:54.083Z,66.49
2018-05-27T05:35:54.070Z,64.01
2018-05-27T05:36:54.058Z,62.50
2018-05-27T05:37:54.044Z,61.47
2018-05-27T05:38:54.032Z,60.44
2018-05-27T05:39:54.022Z,59.95
2018-05-27T05:40:54.018Z,59.50
2018-05-27T05:41:53.999Z,58.14
2018-05-27T05:42:53.986Z,57.91
2018-05-27T05:43:53.975Z,56.65
2018-05-27T05:44:53.970Z,56.52
2018-05-27T05:45:53.954Z,56.56
2018-05-27T05:46:53.954Z,56.26
2018-05-27T05:47:53.942Z,55.98
2018-05-27T05:48:53.923Z,57.01
2018-05-27T05:49:53.916Z,56.16
2018-05-27T05:50:53.906Z,56.72
2018-05-27T05:51:53.898Z,56.65
2018-05-27T05:52:53.891Z,55.98
2018-05-27T05:53:53.880Z,55.16
2018-05-27T05:54:53.882Z,54.21
2018-05-27T05:55:53.864Z,54.38
2018-05-27T05:56:53.855Z,54.19
2018-05-27T05:57:53.849Z,54.28
2018-05-27T05:58:53.840Z,53.99
2018-05-27T05:59:53.834Z,53.44
2018-05-27T06:00:53.825Z,53.08
2018-05-27T06:01:53.873Z,51.45
2018-05-27T06:02:53.811Z,50.51
2018-05-27T06:03:53.805Z,50.29
2018-05-27T06:04:53.798Z,51.53
2018-05-27T06:05:53.792Z,51.62
2018-05-27T06:06:53.785Z,51.33
2018-05-27T06:07:53.791Z,50.80
2018-05-27T06:08:53.775Z,49.80
2018-05-27T06:09:53.775Z,50.60
2018-05-27T06:10:53.762Z,49.85
2018-05-27T06:11:53.757Z,49.17
2018-05-27T06:12:53.750Z,48.78
2018-05-27T06:13:53.745Z,49.82
2018-05-27T06:14:53.740Z,49.82
2018-05-27T06:15:53.734Z,49.54
2018-05-27T06:16:53.738Z,49.27
2018-05-27T06:17:53.724Z,49.07
2018-05-27T06:18:53.871Z,48.32
2018-05-27T06:19:53.718Z,47.76
2018-05-27T06:20:53.711Z,47.08
2018-05-27T06:21:53.708Z,47.37
2018-05-27T06:22:53.704Z,47.47
2018-05-27T06:23:53.714Z,47.30
2018-05-27T06:24:53.694Z,46.15
2018-05-27T06:25:53.690Z,46.05
2018-05-27T06:26:53.691Z,45.57
2018-05-27T06:27:53.686Z,45.29
2018-05-27T06:28:53.685Z,45.22
2018-05-27T06:29:53.686Z,44.81
2018-05-27T06:30:53.675Z,45.57
2018-05-27T06:31:53.673Z,46.25
2018-05-27T06:32:53.670Z,45.59
2018-05-27T06:33:53.677Z,44.64
2018-05-27T06:34:53.667Z,44.90
2018-05-27T06:35:53.670Z,45.37
2018-05-27T06:36:53.661Z,46.34
2018-05-27T06:37:53.664Z,45.67
2018-05-27T06:38:53.665Z,45.39
2018-05-27T06:39:53.656Z,45.57
2018-05-27T06:40:53.653Z,46.25
2018-05-27T06:41:53.671Z,45.06
2018-05-27T06:42:53.657Z,46.03
2018-05-27T06:43:53.651Z,46.34
2018-05-27T06:44:53.648Z,44.81
2018-05-27T06:45:53.649Z,45.12
2018-05-27T06:46:53.650Z,44.71
2018-05-27T06:47:53.646Z,44.44
2018-05-27T06:48:53.645Z,43.95
2018-05-27T06:49:53.642Z,43.85
2018-05-27T06:50:53.643Z,43.29
2018-05-27T06:51:53.641Z,43.47
2018-05-27T06:52:53.643Z,43.44
2018-05-27T06:53:53.642Z,44.86
2018-05-27T06:54:53.643Z,46.59
2018-05-27T06:55:53.642Z,47.25
2018-05-27T06:56:53.641Z,47.74
2018-05-27T06:57:53.642Z,47.93
2018-05-27T06:58:53.641Z,47.64
2018-05-27T06:59:53.647Z,49.07
2018-05-27T07:00:53.648Z,48.97
2018-05-27T07:01:53.641Z,49.27
2018-05-27T07:02:53.641Z,49.00
2018-05-27T07:03:53.644Z,48.80
2018-05-27T07:04:53.685Z,48.05
2018-05-27T07:05:53.646Z,47.56
2018-05-27T07:06:53.640Z,47.66
2018-05-27T07:07:53.641Z,47.66
2018-05-27T07:08:53.635Z,47.30
2018-05-27T07:09:53.646Z,46.05
2018-05-27T07:10:53.639Z,46.15
2018-05-27T07:11:53.637Z,46.08
2018-05-27T07:12:53.634Z,45.29
2018-05-27T07:13:53.636Z,45.28
2018-05-27T07:14:53.647Z,45.84
2018-05-27T07:15:53.631Z,46.50
2018-05-27T07:16:53.629Z,47.17
2018-05-27T07:17:53.629Z,47.47
2018-05-27T07:18:53.629Z,46.20
2018-05-27T07:19:53.629Z,45.94
2018-05-27T07:20:53.635Z,46.42
2018-05-27T07:21:53.630Z,46.23
2018-05-27T07:22:53.626Z,46.59
2018-05-27T07:24:53.628Z,48.51
2018-05-27T07:25:53.644Z,49.29
2018-05-27T07:26:53.635Z,50.53
2018-05-27T07:27:53.631Z,50.60
2018-05-27T07:28:53.631Z,50.80
2018-05-27T07:29:53.632Z,51.57
2018-05-27T07:30:53.640Z,50.99
2018-05-27T07:31:53.629Z,50.68
2018-05-27T07:32:53.652Z,51.75
2018-05-27T07:33:53.628Z,50.77
2018-05-27T07:34:53.625Z,51.45
2018-05-27T07:35:53.641Z,51.84
2018-05-27T07:36:53.625Z,50.96
2018-05-27T07:37:53.623Z,51.38
2018-05-27T07:38:53.624Z,50.31
2018-05-27T07:39:53.619Z,50.02
2018-05-27T07:40:53.619Z,50.51
2018-05-27T07:41:53.638Z,50.34
2018-05-27T07:42:53.614Z,49.97
2018-05-27T07:43:53.613Z,49.58
2018-05-27T07:44:53.609Z,48.61
2018-05-27T07:45:53.606Z,49.76
2018-05-27T07:46:53.604Z,50.80
2018-05-27T07:47:53.599Z,50.48
2018-05-27T07:48:53.593Z,51.55
2018-05-27T07:49:53.601Z,50.99
2018-05-27T07:50:53.590Z,51.38
2018-05-27T07:51:53.599Z,50.80
2018-05-27T07:52:53.582Z,50.12
2018-05-27T07:53:53.586Z,49.92
2018-05-27T07:54:53.591Z,50.34
2018-05-27T07:55:53.622Z,50.04
2018-05-27T07:56:53.568Z,49.92
2018-05-27T07:57:53.565Z,50.99
2018-05-27T07:58:53.563Z,51.87
2018-05-27T07:59:53.559Z,51.67
2018-05-27T08:00:53.558Z,50.73
2018-05-27T08:01:53.545Z,50.51
2018-05-27T08:02:53.543Z,50.82
2018-05-27T08:03:53.541Z,50.43
2018-05-27T08:04:53.534Z,50.80
2018-05-27T08:05:53.534Z,51.84
2018-05-27T08:06:53.525Z,52.03
2018-05-27T08:07:53.531Z,52.42
2018-05-27T08:08:53.531Z,52.23
2018-05-27T08:09:53.510Z,52.15
2018-05-27T08:10:53.509Z,51.97
2018-05-27T08:11:53.507Z,51.87
2018-05-27T08:12:53.507Z,51.77
2018-05-27T08:13:53.497Z,52.35
2018-05-27T08:14:53.490Z,51.67
2018-05-27T08:15:53.485Z,51.67
2018-05-27T08:16:53.478Z,51.48
2018-05-27T08:17:53.486Z,51.48
2018-05-27T08:18:53.469Z,51.38
2018-05-27T08:19:53.476Z,50.60
2018-05-27T08:20:53.461Z,51.38
2018-05-27T08:21:53.461Z,51.77
2018-05-27T08:22:53.459Z,51.67
2018-05-27T08:23:53.452Z,51.01
2018-05-27T08:24:53.440Z,51.67
2018-05-27T08:25:53.436Z,51.67
2018-05-27T08:26:53.439Z,52.35
2018-05-27T08:27:53.443Z,51.87
2018-05-27T08:28:53.421Z,51.60
2018-05-27T08:29:53.429Z,51.50
2018-05-27T08:30:53.406Z,51.57
2018-05-27T08:31:53.400Z,52.13
2018-05-27T08:32:53.394Z,52.81
2018-05-27T08:33:53.390Z,52.15
2018-05-27T08:34:53.394Z,52.35
2018-05-27T08:35:53.376Z,52.06
2018-05-27T08:36:53.405Z,52.15
2018-05-27T08:37:53.373Z,53.03
2018-05-27T08:38:53.366Z,51.77
2018-05-27T08:39:53.352Z,52.06
2018-05-27T08:40:53.353Z,51.97
2018-05-27T08:41:53.339Z,52.15
2018-05-27T08:42:53.331Z,52.19
2018-05-27T08:43:53.327Z,52.19
2018-05-27T08:44:53.320Z,49.87
2018-05-27T08:45:53.325Z,50.73
2018-05-27T08:46:53.308Z,51.40
2018-05-27T08:47:53.315Z,50.56
2018-05-27T08:48:53.332Z,49.87
2018-05-27T08:49:53.288Z,48.15
2018-05-27T08:50:53.282Z,48.05
2018-05-27T08:51:53.276Z,47.86
2018-05-27T08:52:53.274Z,47.39
2018-05-27T08:53:53.261Z,46.91
2018-05-27T08:54:53.269Z,46.61
2018-05-27T08:55:53.258Z,46.61
2018-05-27T08:56:53.247Z,48.13
2018-05-27T08:57:53.237Z,48.54
2018-05-27T08:58:53.234Z,46.71
2018-05-27T08:59:53.225Z,45.25
2018-05-27T09:00:53.222Z,45.74
2018-05-27T09:01:53.214Z,45.37
2018-05-27T09:02:53.209Z,45.54
2018-05-27T09:03:53.203Z,46.03
2018-05-27T09:04:53.197Z,44.92
2018-05-27T09:05:53.193Z,46.18
2018-05-27T09:06:53.188Z,46.01
2018-05-27T09:07:53.184Z,44.72
2018-05-27T09:08:53.214Z,45.14
2018-05-27T09:09:53.174Z,45.04
2018-05-27T09:10:53.169Z,46.42
2018-05-27T09:11:53.165Z,46.15
2018-05-27T09:12:53.162Z,45.08
2018-05-27T09:13:53.164Z,46.15
2018-05-27T09:14:53.152Z,45.88
2018-05-27T09:15:53.157Z,45.03
2018-05-27T09:16:53.144Z,45.28
2018-05-27T09:17:53.153Z,46.23
2018-05-27T09:18:53.139Z,46.05
2018-05-27T09:19:53.133Z,45.29
2018-05-27T09:20:53.131Z,44.34
2018-05-27T09:21:53.128Z,44.17
2018-05-27T09:22:53.123Z,44.07
2018-05-27T09:23:53.120Z,44.15
2018-05-27T09:24:53.131Z,43.84
2018-05-27T09:25:53.115Z,45.00
2018-05-27T09:26:53.113Z,45.29
2018-05-27T09:27:53.110Z,44.98
2018-05-27T09:28:53.118Z,45.39
2018-05-27T09:29:53.104Z,44.42
2018-05-27T09:30:53.108Z,45.39
2018-05-27T09:31:53.101Z,43.95
2018-05-27T09:32:53.095Z,43.37
2018-05-27T09:33:53.097Z,43.00
2018-05-27T09:34:53.092Z,43.10
2018-05-27T09:35:53.087Z,43.10
2018-05-27T09:36:53.092Z,42.61
2018-05-27T09:37:53.084Z,42.61
2018-05-27T09:38:53.091Z,42.44
2018-05-27T09:39:53.087Z,42.05
2018-05-27T09:40:53.081Z,42.34
2018-05-27T09:41:53.076Z,41.87
2018-05-27T09:42:53.076Z,41.87
2018-05-27T09:43:53.079Z,41.48
2018-05-27T09:44:53.078Z,41.48
2018-05-27T09:45:53.081Z,42.16
2018-05-27T09:46:53.071Z,41.85
2018-05-27T09:47:53.072Z,41.97
2018-05-27T09:48:53.072Z,41.58
2018-05-27T09:49:53.069Z,41.21
2018-05-27T09:50:53.069Z,40.63
2018-05-27T09:51:53.073Z,40.43
2018-05-27T09:52:53.067Z,40.43
2018-05-27T09:53:53.067Z,40.82
2018-05-27T09:54:53.071Z,40.63
2018-05-27T09:55:53.076Z,41.41
2018-05-27T09:56:53.066Z,40.45
2018-05-27T09:57:53.226Z,39.86
2018-05-27T09:58:53.064Z,39.75
2018-05-27T09:59:53.067Z,40.68
2018-05-27T10:00:53.069Z,41.09
2018-05-27T10:01:53.067Z,40.74
2018-05-27T10:02:53.069Z,39.59
2018-05-27T10:03:53.068Z,37.87
2018-05-27T10:04:53.057Z,35.91
2018-05-27T10:05:53.057Z,35.34
2018-05-27T10:06:53.069Z,35.55
2018-05-27T10:07:53.065Z,35.16
2018-05-27T10:08:53.057Z,34.00
2018-05-27T10:09:53.065Z,34.20
2018-05-27T10:10:53.060Z,35.75
2018-05-27T10:11:53.061Z,34.78
2018-05-27T10:12:53.091Z,34.94
2018-05-27T10:13:53.080Z,35.45
2018-05-27T10:14:53.070Z,35.91
2018-05-27T10:15:53.073Z,37.81
2018-05-27T10:16:53.072Z,39.08
2018-05-27T10:17:53.077Z,37.75
2018-05-27T10:18:53.134Z,37.47
2018-05-27T10:19:53.093Z,36.71
2018-05-27T10:20:53.084Z,36.24
2018-05-27T10:21:53.089Z,35.71
2018-05-27T10:22:53.093Z,37.65
2018-05-27T10:23:53.097Z,38.94
2018-05-27T10:24:53.102Z,40.21
2018-05-27T10:25:53.151Z,40.06
2018-05-27T10:26:53.107Z,39.02
2018-05-27T10:27:53.113Z,37.39
2018-05-27T10:28:53.113Z,36.04
2018-05-27T10:29:53.118Z,35.37
2018-05-27T10:30:53.120Z,35.71
2018-05-27T10:31:53.177Z,36.88
2018-05-27T10:32:53.195Z,36.41
2018-05-27T10:33:53.140Z,36.49
2018-05-27T10:34:53.139Z,36.51
2018-05-27T10:35:53.142Z,35.66
2018-05-27T10:36:53.149Z,37.83
2018-05-27T10:37:53.149Z,38.92
2018-05-27T10:38:53.161Z,37.98
2018-05-27T10:39:53.158Z,36.90
2018-05-27T10:40:53.163Z,36.82
2018-05-27T10:41:53.168Z,35.68
2018-05-27T10:42:53.179Z,35.60
2018-05-27T10:43:53.184Z,34.42
2018-05-27T10:44:53.185Z,34.44
2018-05-27T10:45:53.189Z,34.23
2018-05-27T10:46:53.208Z,35.39
2018-05-27T10:47:53.201Z,36.53
2018-05-27T10:48:53.207Z,37.19
2018-05-27T10:49:53.215Z,37.08
2018-05-27T10:50:53.217Z,37.39
2018-05-27T10:51:53.228Z,36.38
2018-05-27T10:52:53.243Z,38.10
2018-05-27T10:53:53.236Z,38.77
2018-05-27T10:54:53.249Z,38.71
2018-05-27T10:55:53.244Z,38.71
2018-05-27T10:56:53.256Z,37.87
2018-05-27T10:57:53.262Z,37.29
2018-05-27T10:58:53.270Z,36.35
2018-05-27T10:59:53.314Z,35.24
2018-05-27T11:00:53.287Z,35.50
2018-05-27T11:01:53.277Z,35.89
2018-05-27T11:02:53.290Z,36.93
2018-05-27T11:03:53.291Z,38.89
2018-05-27T11:04:53.296Z,38.53
2018-05-27T11:05:53.343Z,37.52
2018-05-27T11:06:53.402Z,37.81
2018-05-27T11:07:53.323Z,38.40
2018-05-27T11:08:53.313Z,37.63
2018-05-27T11:09:53.321Z,37.04
2018-05-27T11:10:53.337Z,36.67
2018-05-27T11:11:53.333Z,36.32
2018-05-27T11:12:53.332Z,35.25
2018-05-27T11:13:53.338Z,35.25
2018-05-27T11:14:53.347Z,34.86
2018-05-27T11:15:53.351Z,35.85
2018-05-27T11:17:53.358Z,36.87
2018-05-27T11:18:53.411Z,38.12
2018-05-27T11:19:53.371Z,37.83
2018-05-27T11:20:53.374Z,38.02
2018-05-27T11:21:53.381Z,38.12
2018-05-27T11:22:53.388Z,38.04
2018-05-27T11:23:53.390Z,37.27
2018-05-27T11:24:53.411Z,36.90
2018-05-27T11:25:53.417Z,37.10
2018-05-27T11:26:53.409Z,37.67
2018-05-27T11:27:53.411Z,37.39
2018-05-27T11:28:53.414Z,35.25
2018-05-27T11:29:53.467Z,35.93
2018-05-27T11:30:53.425Z,38.42
2018-05-27T11:31:53.431Z,38.22
2018-05-27T11:32:53.436Z,38.71
2018-05-27T11:33:53.456Z,38.53
2018-05-27T11:34:53.551Z,38.90
2018-05-27T11:35:53.456Z,39.76
2018-05-27T11:36:53.505Z,39.92
2018-05-27T11:37:53.465Z,42.59
2018-05-27T11:38:53.476Z,43.10
2018-05-27T11:39:53.462Z,43.19
2018-05-27T11:40:53.466Z,43.22
2018-05-27T11:41:53.475Z,41.97
2018-05-27T11:42:53.469Z,41.23
2018-05-27T11:43:53.478Z,40.63
2018-05-27T11:44:53.476Z,39.84
2018-05-27T11:45:53.476Z,39.94
2018-05-27T11:46:53.473Z,39.86
2018-05-27T11:47:53.493Z,39.69
2018-05-27T11:48:53.479Z,39.28
2018-05-27T11:49:53.488Z,39.67
2018-05-27T11:50:53.477Z,39.75
2018-05-27T11:51:53.478Z,40.23
2018-05-27T11:52:53.476Z,40.43
2018-05-27T11:53:53.478Z,40.14
2018-05-27T11:54:53.476Z,40.31
2018-05-27T11:55:53.476Z,40.70
2018-05-27T11:56:53.477Z,40.11
2018-05-27T11:57:53.476Z,40.80
2018-05-27T11:58:53.482Z,40.39
2018-05-27T11:59:53.473Z,40.56
2018-05-27T12:00:53.471Z,42.10
2018-05-27T12:01:53.471Z,42.20
2018-05-27T12:02:53.470Z,41.81
2018-05-27T12:03:53.467Z,42.30
2018-05-27T12:04:53.475Z,42.18
2018-05-27T12:05:53.462Z,42.66
2018-05-27T12:06:53.469Z,42.86
2018-05-27T12:07:53.460Z,42.86
2018-05-27T12:08:53.457Z,42.40
2018-05-27T12:09:53.455Z,41.63
2018-05-27T12:10:53.451Z,40.09
2018-05-27T12:11:53.444Z,39.80
2018-05-27T12:12:53.441Z,39.78
2018-05-27T12:13:53.442Z,40.35
2018-05-27T12:14:53.435Z,40.25
2018-05-27T12:15:53.432Z,39.57
2018-05-27T12:16:53.432Z,39.57
2018-05-27T12:17:53.437Z,40.72
2018-05-27T12:18:53.423Z,40.55
2018-05-27T12:19:53.421Z,40.03
2018-05-27T12:20:53.428Z,39.55
2018-05-27T12:21:53.407Z,38.69
2018-05-27T12:22:53.403Z,38.89
2018-05-27T12:23:53.400Z,38.40
2018-05-27T12:24:53.397Z,39.75
2018-05-27T12:25:53.390Z,38.98
2018-05-27T12:26:53.397Z,38.79
2018-05-27T12:27:53.381Z,38.49
2018-05-27T12:28:53.391Z,39.18
2018-05-27T12:29:53.449Z,39.37
2018-05-27T12:30:53.398Z,39.76
2018-05-27T12:31:53.369Z,39.96
2018-05-27T12:32:53.357Z,39.76
2018-05-27T12:33:53.354Z,39.59
2018-05-27T12:34:53.348Z,39.39
2018-05-27T12:35:53.352Z,39.65
2018-05-27T12:36:53.383Z,40.60
2018-05-27T12:37:53.340Z,40.33
2018-05-27T12:38:53.339Z,39.84
2018-05-27T12:39:53.333Z,40.62
2018-05-27T12:40:53.320Z,40.33
2018-05-27T12:41:53.316Z,40.81
2018-05-27T12:42:53.347Z,40.52
2018-05-27T12:43:53.307Z,41.13
2018-05-27T12:44:53.305Z,40.42
2018-05-27T12:45:53.301Z,40.45
2018-05-27T12:46:53.297Z,40.64
2018-05-27T12:47:53.302Z,40.06
2018-05-27T12:48:53.281Z,39.47
2018-05-27T12:49:53.283Z,40.62
2018-05-27T12:50:53.276Z,40.52
2018-05-27T12:51:53.275Z,39.67
2018-05-27T12:52:53.261Z,40.06
2018-05-27T12:53:53.263Z,39.55
2018-05-27T12:54:53.250Z,40.33
2018-05-27T12:55:53.247Z,40.03
2018-05-27T12:56:53.243Z,40.42